createdAt,value
2022-10-31T00:00:56.146Z,48.82
2022-10-31T00:03:23.597Z,47.87
2022-10-31T00:05:51.037Z,47.80
2022-10-31T00:08:18.162Z,47.73
2022-10-31T00:10:45.917Z,47.87
2022-10-31T00:13:14.198Z,47.90
2022-10-31T00:15:41.741Z,47.11
2022-10-31T00:18:09.437Z,47.10
2022-10-31T00:20:36.698Z,46.89
2022-10-31T00:23:04.157Z,47.35
2022-10-31T00:25:34.099Z,48.76
2022-10-31T00:28:01.519Z,48.18
2022-10-31T00:30:29.467Z,49.82
2022-10-31T00:32:57.133Z,49.03
2022-10-31T00:35:24.484Z,48.58
2022-10-31T00:37:52.865Z,48.47
2022-10-31T00:40:20.609Z,47.82
2022-10-31T00:42:47.753Z,48.48
2022-10-31T00:45:15.006Z,49.56
2022-10-31T00:47:42.418Z,48.94
2022-10-31T00:50:09.636Z,48.42
2022-10-31T00:52:38.507Z,49.59
2022-10-31T00:55:05.985Z,48.62
2022-10-31T00:57:33.123Z,48.61
2022-10-31T01:00:00.315Z,49.65
2022-10-31T01:02:29.377Z,47.87
2022-10-31T01:04:56.654Z,47.55
2022-10-31T01:07:23.787Z,47.72
2022-10-31T01:09:51.226Z,48.14
2022-10-31T01:12:19.465Z,47.77
2022-10-31T01:14:46.720Z,47.50
2022-10-31T01:17:14.538Z,47.38
2022-10-31T01:19:41.691Z,47.78
2022-10-31T01:22:08.827Z,47.31
2022-10-31T01:24:36.221Z,48.16
2022-10-31T01:27:03.532Z,50.64
2022-10-31T01:29:32.696Z,48.11
2022-10-31T01:32:00.192Z,47.52
2022-10-31T01:34:27.329Z,46.78
2022-10-31T01:36:55.211Z,47.21
2022-10-31T01:39:23.242Z,47.13
2022-10-31T01:41:51.435Z,47.67
2022-10-31T01:44:18.575Z,47.17
2022-10-31T01:47:04.953Z,46.70
2022-10-31T01:49:33.671Z,47.33
2022-10-31T01:52:16.505Z,47.00
2022-10-31T01:54:46.381Z,46.55
2022-10-31T01:57:13.916Z,46.21
2022-10-31T01:59:41.806Z,50.03
2022-10-31T02:02:09.181Z,50.70
2022-10-31T02:04:36.706Z,48.96
2022-10-31T02:07:08.795Z,49.64
2022-10-31T02:09:35.978Z,49.00
2022-10-31T02:12:03.522Z,48.58
2022-10-31T02:14:30.765Z,48.12
2022-10-31T02:16:58.416Z,48.36
2022-10-31T02:19:28.768Z,48.89
2022-10-31T02:22:14.658Z,49.29
2022-10-31T02:24:52.037Z,48.62
2022-10-31T02:27:34.743Z,48.62
2022-10-31T02:30:12.554Z,48.76
2022-10-31T02:33:01.201Z,50.08
2022-10-31T02:35:35.573Z,49.40
2022-10-31T02:38:20.984Z,48.64
2022-10-31T02:40:49.597Z,48.26
2022-10-31T02:43:21.377Z,48.09
2022-10-31T02:46:06.903Z,47.65
2022-10-31T02:48:36.240Z,47.50
2022-10-31T02:51:03.985Z,48.97
2022-10-31T02:53:35.070Z,51.40
2022-10-31T02:56:07.169Z,48.83
2022-10-31T02:58:35.811Z,49.05
2022-10-31T03:01:22.290Z,48.69
2022-10-31T03:03:53.320Z,49.61
2022-10-31T03:06:25.559Z,50.16
2022-10-31T03:08:58.106Z,50.01
2022-10-31T03:11:25.499Z,49.21
2022-10-31T03:13:55.718Z,49.18
2022-10-31T03:16:23.462Z,51.56
2022-10-31T03:18:51.720Z,50.22
2022-10-31T03:21:23.769Z,49.82
2022-10-31T03:23:52.679Z,49.11
2022-10-31T03:26:20.678Z,49.14
2022-10-31T03:28:50.602Z,48.94
2022-10-31T03:31:18.041Z,48.10
2022-10-31T03:33:45.577Z,49.76
2022-10-31T03:36:13.095Z,48.94
2022-10-31T03:38:40.842Z,49.13
2022-10-31T03:41:08.895Z,48.31
2022-10-31T03:43:37.697Z,48.29
2022-10-31T03:46:04.868Z,47.89
2022-10-31T03:48:32.755Z,48.13
2022-10-31T03:50:59.877Z,49.55
2022-10-31T03:53:48.561Z,49.28
2022-10-31T03:56:23.735Z,47.97
2022-10-31T03:58:56.774Z,48.08
2022-10-31T04:01:24.354Z,47.29
2022-10-31T04:03:51.853Z,48.50
2022-10-31T04:06:19.233Z,51.60
2022-10-31T04:08:47.853Z,50.01
2022-10-31T04:11:15.505Z,49.63
2022-10-31T04:13:42.898Z,48.79
2022-10-31T04:16:14.176Z,52.79
2022-10-31T04:18:44.606Z,51.21
2022-10-31T04:21:11.807Z,50.26
2022-10-31T04:23:38.955Z,51.53
2022-10-31T04:26:08.792Z,51.34
2022-10-31T04:28:35.916Z,54.49
2022-10-31T04:31:03.182Z,56.37
2022-10-31T04:33:30.751Z,53.91
2022-10-31T04:35:57.913Z,50.31
2022-10-31T04:38:25.085Z,49.59
2022-10-31T04:40:53.480Z,49.21
2022-10-31T04:43:21.315Z,49.96
2022-10-31T04:45:48.513Z,54.20
2022-10-31T04:48:15.969Z,51.30
2022-10-31T04:50:43.378Z,51.49
2022-10-31T04:53:10.541Z,50.68
2022-10-31T04:55:38.960Z,50.95
2022-10-31T04:58:09.599Z,49.84
2022-10-31T05:00:37.397Z,49.52
2022-10-31T05:03:05.440Z,48.54
2022-10-31T05:05:33.187Z,48.57
2022-10-31T05:08:00.549Z,48.05
2022-10-31T05:10:29.822Z,48.01
2022-10-31T05:13:00.066Z,47.83
2022-10-31T05:15:30.054Z,48.86
2022-10-31T05:18:01.232Z,47.91
2022-10-31T05:20:30.221Z,47.40
2022-10-31T05:22:59.171Z,47.99
2022-10-31T05:25:27.595Z,48.38
2022-10-31T05:27:55.808Z,47.62
2022-10-31T05:30:24.202Z,48.93
2022-10-31T05:32:51.644Z,50.21
2022-10-31T05:35:28.314Z,50.94
2022-10-31T05:37:58.680Z,50.18
2022-10-31T05:40:26.891Z,49.30
2022-10-31T05:42:54.875Z,50.78
2022-10-31T05:45:22.970Z,50.45
2022-10-31T05:47:58.300Z,50.12
2022-10-31T05:50:28.535Z,51.13
2022-10-31T05:53:01.090Z,51.67
2022-10-31T05:55:29.000Z,50.00
2022-10-31T05:57:58.068Z,50.65
2022-10-31T06:00:25.759Z,50.61
2022-10-31T06:03:18.860Z,52.41
2022-10-31T06:05:50.628Z,51.68
2022-10-31T06:08:21.414Z,50.11
2022-10-31T06:10:49.406Z,50.40
2022-10-31T06:13:18.326Z,51.94
2022-10-31T06:15:45.633Z,50.09
2022-10-31T06:18:13.426Z,50.58
2022-10-31T06:20:44.213Z,53.08
2022-10-31T06:23:11.630Z,51.50
2022-10-31T06:25:39.381Z,50.01
2022-10-31T06:28:06.558Z,48.92
2022-10-31T06:30:34.555Z,49.27
2022-10-31T06:33:03.183Z,48.98
2022-10-31T06:35:30.695Z,49.46
2022-10-31T06:37:57.974Z,49.26
2022-10-31T06:40:27.547Z,49.21
2022-10-31T06:43:00.696Z,49.12
2022-10-31T06:45:28.442Z,49.51
2022-10-31T06:50:50.541Z,51.77
2022-10-31T06:53:17.721Z,51.33
2022-10-31T06:55:44.907Z,52.52
2022-10-31T06:58:13.627Z,50.52
2022-10-31T07:00:41.081Z,50.98
2022-10-31T07:03:10.718Z,50.93
2022-10-31T07:05:38.598Z,52.66
2022-10-31T07:08:07.445Z,55.51
2022-10-31T07:10:39.107Z,52.94
2022-10-31T07:13:13.021Z,52.70
2022-10-31T07:15:41.124Z,51.89
2022-10-31T07:18:09.381Z,51.24
2022-10-31T07:20:36.583Z,51.08
2022-10-31T07:23:04.407Z,50.68
2022-10-31T07:25:32.513Z,50.33
2022-10-31T07:28:01.664Z,53.38
2022-10-31T07:30:29.231Z,50.88
2022-10-31T07:32:56.751Z,50.11
2022-10-31T07:35:26.442Z,54.96
2022-10-31T07:37:54.005Z,53.08
2022-10-31T07:40:21.795Z,53.13
2022-10-31T07:42:49.647Z,52.65
2022-10-31T07:45:28.647Z,51.74
2022-10-31T07:47:58.714Z,53.15
2022-10-31T07:50:35.328Z,53.75
2022-10-31T07:53:06.511Z,52.73
2022-10-31T07:55:35.067Z,53.50
2022-10-31T07:58:18.486Z,52.25
2022-10-31T08:00:46.132Z,51.23
2022-10-31T08:03:15.598Z,52.01
2022-10-31T08:05:46.953Z,52.42
2022-10-31T08:08:16.560Z,51.79
2022-10-31T08:10:44.102Z,51.69
2022-10-31T08:13:12.174Z,51.30
2022-10-31T08:15:42.451Z,51.11
2022-10-31T08:18:13.460Z,50.76
2022-10-31T08:20:41.619Z,49.56
2022-10-31T08:23:10.516Z,51.66
2022-10-31T08:25:39.310Z,51.57
2022-10-31T08:28:07.392Z,54.02
2022-10-31T08:30:35.508Z,56.50
2022-10-31T08:33:11.265Z,51.83
2022-10-31T08:35:43.164Z,51.42
2022-10-31T08:38:12.832Z,50.83
2022-10-31T08:40:40.641Z,50.19
2022-10-31T08:43:11.975Z,50.69
2022-10-31T08:45:39.525Z,51.57
2022-10-31T08:48:10.426Z,50.48
2022-10-31T08:50:38.070Z,49.91
2022-10-31T08:53:08.299Z,49.75
2022-10-31T08:55:36.427Z,51.15
2022-10-31T08:58:04.705Z,51.12
2022-10-31T09:00:35.544Z,52.19
2022-10-31T09:03:04.258Z,52.38
2022-10-31T09:05:32.703Z,55.85
2022-10-31T09:08:01.467Z,53.82
2022-10-31T09:10:29.226Z,56.89
2022-10-31T09:13:00.082Z,54.62
2022-10-31T09:15:30.104Z,52.50
2022-10-31T09:17:57.944Z,51.60
2022-10-31T09:20:27.197Z,51.59
2022-10-31T09:22:58.397Z,51.70
2022-10-31T09:25:25.717Z,56.09
2022-10-31T09:27:58.723Z,55.78
2022-10-31T09:30:27.076Z,54.63
2022-10-31T09:32:58.414Z,53.74
2022-10-31T09:35:26.177Z,55.46
2022-10-31T09:37:56.040Z,55.71
2022-10-31T09:40:24.225Z,54.99
2022-10-31T09:42:54.465Z,57.14
2022-10-31T09:45:40.489Z,54.97
2022-10-31T09:48:08.552Z,56.88
2022-10-31T09:50:43.844Z,53.81
2022-10-31T09:53:32.448Z,55.22
2022-10-31T09:55:59.912Z,54.88
2022-10-31T09:58:28.836Z,55.32
2022-10-31T10:00:57.451Z,55.60
2022-10-31T10:03:33.134Z,55.50
2022-10-31T10:06:16.570Z,56.97
2022-10-31T10:08:46.363Z,57.47
2022-10-31T10:11:27.045Z,54.66
2022-10-31T10:14:01.149Z,58.38
2022-10-31T10:16:41.154Z,55.61
2022-10-31T10:19:08.496Z,54.28
2022-10-31T10:21:43.419Z,56.26
2022-10-31T10:24:10.752Z,56.59
2022-10-31T10:26:38.797Z,56.96
2022-10-31T10:29:22.345Z,55.23
2022-10-31T10:31:49.956Z,55.68
2022-10-31T10:34:21.634Z,54.31
2022-10-31T10:36:51.456Z,53.19
2022-10-31T10:39:19.844Z,53.37
2022-10-31T10:42:08.652Z,53.52
2022-10-31T10:44:58.150Z,52.40
2022-10-31T10:47:38.078Z,53.31
2022-10-31T10:50:08.357Z,51.75
2022-10-31T10:52:54.019Z,52.56
2022-10-31T10:55:24.294Z,53.01
2022-10-31T10:57:56.812Z,53.08
2022-10-31T11:00:28.802Z,53.04
2022-10-31T11:02:55.979Z,55.05
2022-10-31T11:05:43.443Z,54.87
2022-10-31T11:08:10.606Z,53.86
2022-10-31T11:10:38.028Z,55.74
2022-10-31T11:13:19.727Z,54.59
2022-10-31T11:15:52.133Z,53.74
2022-10-31T11:20:58.042Z,54.07
2022-10-31T11:23:25.919Z,53.29
2022-10-31T11:26:03.249Z,52.52
2022-10-31T11:28:31.115Z,53.76
2022-10-31T11:31:08.518Z,52.96
2022-10-31T11:33:40.550Z,51.67
2022-10-31T11:36:17.556Z,53.58
2022-10-31T11:38:44.971Z,58.06
2022-10-31T11:41:12.037Z,56.14
2022-10-31T11:43:39.294Z,54.27
2022-10-31T11:46:10.770Z,53.33
2022-10-31T11:48:37.933Z,57.96
2022-10-31T11:51:05.615Z,53.84
2022-10-31T11:53:33.876Z,53.95
2022-10-31T11:56:02.306Z,52.86
2022-10-31T11:58:29.427Z,52.02
2022-10-31T12:00:57.298Z,51.69
2022-10-31T12:03:24.764Z,54.41
2022-10-31T12:05:56.707Z,54.45
2022-10-31T12:08:23.805Z,56.84
2022-10-31T12:10:54.335Z,55.06
2022-10-31T12:13:41.350Z,55.43
2022-10-31T12:16:17.862Z,55.86
2022-10-31T12:18:44.906Z,55.29
2022-10-31T12:21:29.088Z,54.29
2022-10-31T12:24:06.243Z,54.74
2022-10-31T12:26:33.586Z,55.93
2022-10-31T12:29:09.330Z,55.40
2022-10-31T12:31:43.089Z,53.79
2022-10-31T12:34:40.993Z,54.26
2022-10-31T12:37:12.916Z,55.88
2022-10-31T12:39:39.984Z,54.98
2022-10-31T12:42:13.244Z,53.70
2022-10-31T12:44:59.412Z,54.49
2022-10-31T12:47:33.921Z,57.27
2022-10-31T12:50:13.366Z,54.42
2022-10-31T12:52:44.337Z,55.61
2022-10-31T12:55:30.215Z,56.17
2022-10-31T12:58:04.783Z,53.38
2022-10-31T13:00:32.429Z,57.30
2022-10-31T13:03:11.235Z,56.75
2022-10-31T13:05:40.236Z,56.56
2022-10-31T13:08:10.723Z,56.96
2022-10-31T13:10:39.236Z,55.07
2022-10-31T13:13:11.283Z,55.03
2022-10-31T13:15:46.993Z,53.78
2022-10-31T13:18:16.413Z,53.65
2022-10-31T13:20:44.481Z,53.45
2022-10-31T13:23:48.577Z,55.63
2022-10-31T13:26:10.832Z,54.40
2022-10-31T13:28:41.356Z,52.64
2022-10-31T13:31:09.192Z,52.74
2022-10-31T13:33:40.431Z,51.80
2022-10-31T13:36:16.911Z,51.72
2022-10-31T13:38:48.221Z,51.92
2022-10-31T13:41:23.254Z,51.16
2022-10-31T13:43:56.628Z,50.92
2022-10-31T13:46:32.797Z,52.13
2022-10-31T13:49:00.406Z,52.51
2022-10-31T13:51:31.699Z,52.90
2022-10-31T13:54:02.930Z,53.70
2022-10-31T13:56:31.226Z,54.68
2022-10-31T13:59:02.452Z,55.17
2022-10-31T14:01:30.540Z,53.64
2022-10-31T14:04:13.003Z,53.75
2022-10-31T14:06:46.524Z,52.80
2022-10-31T14:09:18.964Z,51.91
2022-10-31T14:11:47.651Z,53.98
2022-10-31T14:14:15.001Z,54.07
2022-10-31T14:16:43.183Z,53.63
2022-10-31T14:19:19.979Z,54.57
2022-10-31T14:21:50.781Z,54.74
2022-10-31T14:24:24.640Z,56.49
2022-10-31T14:26:52.987Z,56.74
2022-10-31T14:29:22.215Z,55.05
2022-10-31T14:31:52.275Z,57.43
2022-10-31T14:34:20.306Z,55.79
2022-10-31T14:36:51.166Z,55.56
2022-10-31T14:39:19.312Z,53.49
2022-10-31T14:42:06.815Z,54.73
2022-10-31T14:44:46.290Z,55.86
2022-10-31T14:47:25.812Z,54.30
2022-10-31T14:50:08.082Z,56.14
2022-10-31T14:52:36.839Z,57.97
2022-10-31T14:55:04.051Z,56.04
2022-10-31T14:57:32.426Z,55.29
2022-10-31T15:00:06.127Z,54.58
2022-10-31T15:02:37.588Z,54.51
2022-10-31T15:05:08.945Z,53.15
2022-10-31T15:07:37.579Z,56.28
2022-10-31T15:10:07.004Z,56.53
2022-10-31T15:12:35.430Z,56.41
2022-10-31T15:15:16.121Z,55.93
2022-10-31T15:17:50.192Z,56.28
2022-10-31T15:20:22.028Z,54.10
2022-10-31T15:22:49.403Z,53.75
2022-10-31T15:25:21.083Z,54.30
2022-10-31T15:27:48.819Z,55.05
2022-10-31T15:30:19.513Z,57.80
2022-10-31T15:32:55.322Z,53.90
2022-10-31T15:35:26.809Z,53.51
2022-10-31T15:37:54.143Z,53.36
2022-10-31T15:40:22.564Z,52.93
2022-10-31T15:42:57.557Z,52.51
2022-10-31T15:45:25.355Z,56.02
2022-10-31T15:48:00.016Z,56.44
2022-10-31T15:50:33.508Z,55.05
2022-10-31T15:53:01.291Z,53.67
2022-10-31T15:55:29.365Z,53.34
2022-10-31T15:58:00.338Z,54.41
2022-10-31T16:00:35.865Z,54.11
2022-10-31T16:03:06.037Z,53.26
2022-10-31T16:05:37.490Z,57.00
2022-10-31T16:08:05.091Z,54.93
2022-10-31T16:10:33.988Z,54.10
2022-10-31T16:13:01.267Z,53.18
2022-10-31T16:15:28.890Z,54.40
2022-10-31T16:18:01.348Z,55.04
2022-10-31T16:20:29.820Z,54.63
2022-10-31T16:22:56.946Z,53.18
2022-10-31T16:25:26.639Z,53.47
2022-10-31T16:27:54.796Z,54.36
2022-10-31T16:30:36.869Z,52.51
2022-10-31T16:33:04.634Z,54.85
2022-10-31T16:35:36.041Z,56.75
2022-10-31T16:38:03.600Z,57.90
2022-10-31T16:40:30.919Z,57.52
2022-10-31T16:42:58.878Z,57.83
2022-10-31T16:45:27.249Z,56.93
2022-10-31T16:47:54.502Z,56.06
2022-10-31T16:50:23.103Z,55.72
2022-10-31T16:55:45.950Z,59.33
2022-10-31T16:58:17.680Z,58.10
2022-10-31T17:00:45.010Z,57.33
2022-10-31T17:03:12.218Z,58.60
2022-10-31T17:05:39.631Z,62.84
2022-10-31T17:08:06.834Z,59.43
2022-10-31T17:10:34.738Z,59.29
2022-10-31T17:13:03.872Z,60.54
2022-10-31T17:15:33.930Z,57.10
2022-10-31T17:18:01.770Z,60.92
2022-10-31T17:20:30.053Z,57.54
2022-10-31T17:22:57.623Z,56.46
2022-10-31T17:25:26.201Z,57.11
2022-10-31T17:27:53.411Z,56.37
2022-10-31T17:30:21.113Z,58.08
2022-10-31T17:32:48.751Z,58.09
2022-10-31T17:35:16.289Z,58.79
2022-10-31T17:37:43.976Z,57.32
2022-10-31T17:40:11.968Z,58.41
2022-10-31T17:42:39.155Z,58.09
2022-10-31T17:45:06.962Z,57.99
2022-10-31T17:47:34.909Z,57.70
2022-10-31T17:50:02.142Z,55.82
2022-10-31T17:52:29.594Z,55.78
2022-10-31T17:54:57.145Z,57.70
2022-10-31T17:57:24.369Z,56.59
2022-10-31T17:59:51.740Z,57.19
2022-10-31T18:02:19.383Z,59.55
2022-10-31T18:04:47.213Z,56.00
2022-10-31T18:07:21.003Z,55.28
2022-10-31T18:09:48.448Z,54.24
2022-10-31T18:12:15.952Z,53.09
2022-10-31T18:14:48.407Z,53.27
2022-10-31T18:17:16.215Z,54.07
2022-10-31T18:19:43.356Z,54.11
2022-10-31T18:22:10.541Z,57.77
2022-10-31T18:24:38.043Z,58.15
2022-10-31T18:27:05.384Z,59.50
2022-10-31T18:29:33.046Z,62.91
2022-10-31T18:32:03.221Z,60.61
2022-10-31T18:34:32.724Z,61.63
2022-10-31T18:36:59.989Z,61.65
2022-10-31T18:39:27.730Z,60.03
2022-10-31T18:41:54.977Z,64.00
2022-10-31T18:44:22.659Z,62.18
2022-10-31T18:46:50.063Z,58.86
2022-10-31T18:49:22.480Z,59.69
2022-10-31T18:51:50.376Z,59.19
2022-10-31T18:54:17.687Z,59.66
2022-10-31T18:56:45.086Z,61.01
2022-10-31T18:59:12.862Z,61.54
2022-10-31T19:01:40.636Z,61.92
2022-10-31T19:04:08.380Z,59.33
2022-10-31T19:06:35.821Z,61.34
2022-10-31T19:09:04.954Z,60.65
2022-10-31T19:11:32.796Z,59.63
2022-10-31T19:14:00.286Z,61.73
2022-10-31T19:16:27.981Z,59.90
2022-10-31T19:19:00.122Z,58.32
2022-10-31T19:21:27.930Z,57.67
2022-10-31T19:23:56.492Z,57.51
2022-10-31T19:26:25.306Z,57.02
2022-10-31T19:28:52.925Z,58.20
2022-10-31T19:31:20.332Z,62.50
2022-10-31T19:33:48.043Z,59.49
2022-10-31T19:36:16.573Z,59.38
2022-10-31T19:38:44.186Z,61.30
2022-10-31T19:41:12.519Z,61.90
2022-10-31T19:43:40.260Z,61.02
2022-10-31T19:46:09.081Z,60.16
2022-10-31T19:48:39.119Z,59.60
2022-10-31T19:51:07.920Z,59.93
2022-10-31T19:53:35.721Z,59.90
2022-10-31T19:56:03.409Z,59.10
2022-10-31T19:58:32.000Z,56.59
2022-10-31T20:03:33.747Z,56.91
2022-10-31T20:06:04.957Z,56.49
2022-10-31T20:08:37.051Z,55.25
2022-10-31T20:11:06.824Z,58.84
2022-10-31T20:13:34.789Z,57.14
2022-10-31T20:16:03.759Z,59.04
2022-10-31T20:18:31.425Z,57.10
2022-10-31T20:21:06.081Z,56.36
2022-10-31T20:23:33.704Z,57.86
2022-10-31T20:26:01.129Z,57.17
2022-10-31T20:28:29.854Z,57.12
2022-10-31T20:30:57.159Z,57.04
2022-10-31T20:33:24.534Z,58.31
2022-10-31T20:35:51.725Z,60.31
2022-10-31T20:38:18.968Z,59.72
2022-10-31T20:40:46.373Z,58.65
2022-10-31T20:43:14.930Z,57.30
2022-10-31T20:45:42.616Z,57.55
2022-10-31T20:48:10.072Z,58.71
2022-10-31T20:50:38.174Z,60.27
2022-10-31T20:53:07.373Z,61.98
2022-10-31T20:55:34.841Z,59.93
2022-10-31T20:58:01.999Z,60.22
2022-10-31T21:00:29.388Z,58.71
2022-10-31T21:02:56.858Z,58.67
2022-10-31T21:05:24.417Z,61.06
2022-10-31T21:10:24.264Z,61.95
2022-10-31T21:12:51.369Z,61.48
2022-10-31T21:15:18.813Z,60.47
2022-10-31T21:17:46.232Z,60.13
2022-10-31T21:20:14.097Z,59.01
2022-10-31T21:22:41.281Z,57.68
2022-10-31T21:25:08.987Z,59.12
2022-10-31T21:27:36.560Z,57.73
2022-10-31T21:30:22.484Z,56.48
2022-10-31T21:32:49.883Z,56.41
2022-10-31T21:35:16.985Z,55.96
2022-10-31T21:37:44.184Z,59.23
2022-10-31T21:40:11.730Z,56.37
2022-10-31T21:42:38.875Z,56.95
2022-10-31T21:45:06.071Z,57.10
2022-10-31T21:47:33.437Z,56.21
2022-10-31T21:50:00.539Z,57.25
2022-10-31T21:52:27.663Z,61.52
2022-10-31T21:54:55.024Z,58.93
2022-10-31T21:59:54.419Z,59.17
2022-10-31T22:02:21.509Z,57.82
2022-10-31T22:04:50.974Z,60.66
2022-10-31T22:07:19.600Z,57.02
2022-10-31T22:09:47.422Z,56.47
2022-10-31T22:12:14.987Z,55.10
2022-10-31T22:17:10.174Z,56.75
2022-10-31T22:19:37.537Z,55.92
2022-10-31T22:22:04.646Z,56.65
2022-10-31T22:24:31.771Z,55.39
2022-10-31T22:26:59.929Z,55.55
2022-10-31T22:29:28.801Z,56.20
2022-10-31T22:31:59.538Z,57.52
2022-10-31T22:34:28.920Z,55.86
2022-10-31T22:37:01.487Z,55.90
2022-10-31T22:39:32.512Z,57.97
2022-10-31T22:41:59.616Z,56.60
2022-10-31T22:44:26.727Z,55.85
2022-10-31T22:46:54.079Z,56.95
2022-10-31T22:49:21.191Z,57.42
2022-10-31T22:51:49.782Z,56.79
2022-10-31T22:54:17.774Z,58.08
2022-10-31T22:56:45.051Z,57.24
2022-10-31T22:59:15.885Z,57.73
2022-10-31T23:01:45.619Z,58.24
2022-10-31T23:04:13.561Z,56.28
2022-10-31T23:06:40.719Z,54.97
2022-10-31T23:09:08.424Z,56.04
2022-10-31T23:11:39.442Z,55.23
2022-10-31T23:14:10.642Z,54.30
2022-10-31T23:16:41.274Z,55.45
2022-10-31T23:19:08.902Z,54.92
2022-10-31T23:21:55.632Z,55.94
2022-10-31T23:24:26.008Z,56.68
2022-10-31T23:27:06.039Z,55.94
2022-10-31T23:29:34.137Z,55.03
2022-10-31T23:32:01.351Z,55.25
2022-10-31T23:34:28.509Z,54.68
2022-10-31T23:36:56.079Z,56.52
2022-10-31T23:39:25.086Z,55.19
2022-10-31T23:41:52.649Z,56.03
2022-10-31T23:44:20.008Z,57.21
2022-10-31T23:46:47.132Z,57.08
2022-10-31T23:49:14.243Z,57.91
2022-10-31T23:51:41.596Z,56.88
2022-10-31T23:54:08.950Z,55.68
2022-10-31T23:56:36.127Z,57.42
2022-10-31T23:59:03.770Z,55.75
